Time;durP1;ratioP1;P1;durP2;ratioP2;P2;SDS_P1;SDS_P2;PMS_P1;PMS_P2;Temp;Humidity;BMP_temperature;BMP_pressure;BME280_temperature;BME280_humidity;BME280_pressure;Samples;Min_cycle;Max_cycle;Signal;HPM_P1;HPM_P2
2023/05/28 00:01:58;;;;;;;;;;;12.30;99.90;;;;;;5090933;28;19919;-86
2023/05/28 00:04:24;;;;;;;;;;;12.30;99.90;;;;;;5073378;28;19908;-86
2023/05/28 00:06:52;;;;;;;;;;;12.30;99.90;;;;;;5074061;28;19912;-86
2023/05/28 00:09:18;;;;;;;;;;;12.30;99.90;;;;;;5074022;28;20256;-87
2023/05/28 00:12:12;;;;;;;;;;;12.30;99.90;;;;;;5073756;28;20390;-86
2023/05/28 00:14:38;;;;;;;;;;;12.20;99.90;;;;;;5074439;28;20418;-85
2023/05/28 00:17:04;;;;;;;;;;;12.10;99.90;;;;;;5056949;28;19909;-85
2023/05/28 00:19:29;;;;;;;;;;;12.10;99.90;;;;;;5074195;28;19969;-85
2023/05/28 00:21:55;;;;;;;;;;;12.00;99.90;;;;;;5074045;28;19909;-85
2023/05/28 00:24:21;;;;;;;;;;;12.00;99.90;;;;;;5073900;28;20328;-86
2023/05/28 00:26:46;;;;;;;;;;;11.90;99.90;;;;;;5073586;28;19919;-86
2023/05/28 00:29:13;;;;;;;;;;;11.90;99.90;;;;;;5074247;28;20370;-87
2023/05/28 00:31:38;;;;;;;;;;;11.90;99.90;;;;;;5056520;28;19983;-86
2023/05/28 00:34:04;;;;;;;;;;;11.80;99.90;;;;;;5071324;28;19908;-86
2023/05/28 00:36:29;;;;;;;;;;;11.80;99.90;;;;;;5073729;28;19919;-85
2023/05/28 00:38:55;;;;;;;;;;;11.70;99.90;;;;;;5056941;28;20002;-86
2023/05/28 00:41:22;;;;;;;;;;;11.70;99.90;;;;;;5074534;28;19911;-85
2023/05/28 00:43:48;;;;;;;;;;;11.60;99.90;;;;;;5072686;28;19913;-86
2023/05/28 00:46:20;;;;;;;;;;;11.50;99.90;;;;;;5072983;28;19916;-86
2023/05/28 00:48:46;;;;;;;;;;;11.50;99.90;;;;;;5069318;28;19908;-86
2023/05/28 00:51:12;;;;;;;;;;;11.40;99.90;;;;;;5073291;28;19908;-85
2023/05/28 00:53:40;;;;;;;;;;;11.50;99.90;;;;;;5073273;28;19908;-86
2023/05/28 00:56:06;;;;;;;;;;;11.40;99.90;;;;;;5072880;28;19960;-85
2023/05/28 00:58:34;;;;;;;;;;;11.40;99.90;;;;;;5067261;28;19924;-86
2023/05/28 01:01:00;;;;;;;;;;;11.40;99.90;;;;;;5073740;28;19913;-86
2023/05/28 01:03:26;;;;;;;;;;;11.40;99.90;;;;;;5077660;28;19985;-86
2023/05/28 01:05:52;;;;;;;;;;;11.30;99.90;;;;;;5078741;28;19912;-86
2023/05/28 01:08:18;;;;;;;;;;;11.30;99.90;;;;;;5077449;28;20271;-86
2023/05/28 01:10:44;;;;;;;;;;;11.20;99.90;;;;;;5077801;28;20263;-86
2023/05/28 01:13:10;;;;;;;;;;;11.20;99.90;;;;;;5077139;28;20329;-86
2023/05/28 01:15:58;;;;;;;;;;;11.10;99.90;;;;;;5077402;28;20289;-85
2023/05/28 01:18:24;;;;;;;;;;;11.00;99.90;;;;;;5060685;28;19908;-86
2023/05/28 01:20:50;;;;;;;;;;;11.00;99.90;;;;;;5077565;28;19954;-86
2023/05/28 01:23:17;;;;;;;;;;;11.00;99.90;;;;;;5076749;28;19919;-86
2023/05/28 01:25:44;;;;;;;;;;;11.00;99.90;;;;;;5077213;28;19909;-85
2023/05/28 01:28:10;;;;;;;;;;;10.90;99.90;;;;;;5077512;28;19922;-86
2023/05/28 01:30:36;;;;;;;;;;;10.90;99.90;;;;;;5060315;28;20412;-86
2023/05/28 01:33:02;;;;;;;;;;;10.90;99.90;;;;;;5076869;28;19962;-85
2023/05/28 01:35:29;;;;;;;;;;;10.90;99.90;;;;;;5076731;28;19955;-86
2023/05/28 01:37:58;;;;;;;;;;;10.90;99.90;;;;;;5077160;28;19908;-86
2023/05/28 01:40:24;;;;;;;;;;;10.80;99.90;;;;;;5076921;28;19991;-85
2023/05/28 01:42:51;;;;;;;;;;;10.80;99.90;;;;;;5076608;28;19917;-86
2023/05/28 01:45:17;;;;;;;;;;;10.80;99.90;;;;;;5076567;28;20003;-85
2023/05/28 01:47:45;;;;;;;;;;;10.70;99.90;;;;;;5076610;28;19909;-85
2023/05/28 01:50:12;;;;;;;;;;;10.70;99.90;;;;;;5076540;28;19915;-86
2023/05/28 01:52:38;;;;;;;;;;;10.60;99.90;;;;;;5076445;28;19908;-85
2023/05/28 01:55:05;;;;;;;;;;;10.70;99.90;;;;;;5076150;28;19909;-85
2023/05/28 01:57:30;;;;;;;;;;;10.60;99.90;;;;;;5076674;28;20312;-85
2023/05/28 01:59:56;;;;;;;;;;;10.60;99.90;;;;;;5076413;28;19961;-85
2023/05/28 02:02:26;;;;;;;;;;;10.50;99.90;;;;;;5076203;28;19908;-85
2023/05/28 02:04:52;;;;;;;;;;;10.50;99.90;;;;;;5075857;28;19908;-86
2023/05/28 02:07:20;;;;;;;;;;;10.50;99.90;;;;;;5075341;28;20003;-85
2023/05/28 02:09:48;;;;;;;;;;;10.50;99.90;;;;;;5076373;28;20015;-85
2023/05/28 02:12:15;;;;;;;;;;;10.40;99.90;;;;;;5076270;28;19970;-86
2023/05/28 02:14:41;;;;;;;;;;;10.40;99.90;;;;;;5076548;28;19905;-85
2023/05/28 02:17:09;;;;;;;;;;;10.40;99.90;;;;;;5076151;28;19908;-86
2023/05/28 02:19:34;;;;;;;;;;;10.40;99.90;;;;;;5076106;28;19908;-86
2023/05/28 02:22:00;;;;;;;;;;;10.40;99.90;;;;;;5075219;28;19923;-86
2023/05/28 02:24:26;;;;;;;;;;;10.40;99.90;;;;;;5070067;28;19917;-85
2023/05/28 02:26:53;;;;;;;;;;;10.30;99.90;;;;;;5061685;28;19952;-85
2023/05/28 02:29:19;;;;;;;;;;;10.30;99.90;;;;;;5074631;28;19908;-86
2023/05/28 02:31:45;;;;;;;;;;;10.30;99.90;;;;;;5076296;28;20271;-85
2023/05/28 02:34:12;;;;;;;;;;;10.40;99.90;;;;;;5081917;28;20305;-85
2023/05/28 02:36:37;;;;;;;;;;;10.40;99.90;;;;;;5074102;28;19913;-86
2023/05/28 02:39:03;;;;;;;;;;;10.40;99.90;;;;;;5071813;28;19908;-85
2023/05/28 02:41:30;;;;;;;;;;;10.50;99.90;;;;;;5072211;28;19916;-86
2023/05/28 02:43:56;;;;;;;;;;;10.40;99.90;;;;;;5078703;28;20274;-86
2023/05/28 02:46:22;;;;;;;;;;;10.40;99.90;;;;;;5074361;28;19916;-86
2023/05/28 02:48:48;;;;;;;;;;;10.40;99.90;;;;;;5064880;28;20008;-85
2023/05/28 02:51:16;;;;;;;;;;;10.40;99.90;;;;;;5072922;28;19969;-85
2023/05/28 02:54:00;;;;;;;;;;;10.50;99.90;;;;;;5063003;28;19963;-85
2023/05/28 02:56:26;;;;;;;;;;;10.40;99.90;;;;;;5074743;28;19912;-85
2023/05/28 02:58:52;;;;;;;;;;;10.40;99.90;;;;;;5070722;28;19908;-85
2023/05/28 03:01:19;;;;;;;;;;;10.40;99.90;;;;;;5073765;28;19958;-85
2023/05/28 03:03:45;;;;;;;;;;;10.40;99.90;;;;;;5081880;28;19912;-85
2023/05/28 03:06:10;;;;;;;;;;;10.40;99.90;;;;;;5082268;28;20367;-85
2023/05/28 03:08:56;;;;;;;;;;;10.40;99.90;;;;;;5088195;28;19912;-85
2023/05/28 03:11:22;;;;;;;;;;;10.30;99.90;;;;;;5074776;28;19909;-85
2023/05/28 03:13:47;;;;;;;;;;;10.30;99.90;;;;;;5075061;28;20302;-85
2023/05/28 03:16:36;;;;;;;;;;;10.30;99.90;;;;;;5075293;28;19914;-85
2023/05/28 03:19:04;;;;;;;;;;;10.20;99.90;;;;;;5061865;28;19909;-85
2023/05/28 03:21:32;;;;;;;;;;;10.20;99.90;;;;;;5074757;28;19912;-85
2023/05/28 03:24:20;;;;;;;;;;;10.20;99.90;;;;;;5074596;28;19913;-85
2023/05/28 03:26:50;;;;;;;;;;;10.20;99.90;;;;;;5063628;28;19958;-85
2023/05/28 03:29:20;;;;;;;;;;;10.20;99.90;;;;;;5072554;28;20021;-88
2023/05/28 03:32:09;;;;;;;;;;;10.20;99.90;;;;;;5074279;28;19915;-87
2023/05/28 03:34:35;;;;;;;;;;;10.20;99.90;;;;;;5074877;28;19916;-87
2023/05/28 03:37:02;;;;;;;;;;;10.20;99.90;;;;;;5075146;28;20332;-86
2023/05/28 03:39:28;;;;;;;;;;;10.20;99.90;;;;;;5074650;28;19961;-88
2023/05/28 03:41:54;;;;;;;;;;;10.20;99.90;;;;;;5068860;28;19912;-88
2023/05/28 03:44:22;;;;;;;;;;;10.30;99.90;;;;;;5074492;28;20249;-87
2023/05/28 03:46:49;;;;;;;;;;;10.30;99.90;;;;;;5074543;28;19948;-88
2023/05/28 03:49:15;;;;;;;;;;;10.30;99.90;;;;;;5075018;28;19931;-88
2023/05/28 03:51:41;;;;;;;;;;;10.30;99.90;;;;;;5058233;28;19908;-88
2023/05/28 03:54:07;;;;;;;;;;;10.20;99.90;;;;;;5075585;28;19963;-88
2023/05/28 03:56:36;;;;;;;;;;;10.20;99.90;;;;;;5074951;28;20272;-87
2023/05/28 03:59:03;;;;;;;;;;;10.20;99.90;;;;;;5075297;28;19909;-88
2023/05/28 04:01:30;;;;;;;;;;;10.20;99.90;;;;;;5057982;28;19939;-88
2023/05/28 04:03:55;;;;;;;;;;;10.30;99.90;;;;;;5074718;28;19916;-87
2023/05/28 04:06:22;;;;;;;;;;;10.30;99.90;;;;;;5074542;28;19965;-88
2023/05/28 04:08:50;;;;;;;;;;;10.30;99.90;;;;;;5075144;28;19916;-87
2023/05/28 04:11:16;;;;;;;;;;;10.40;99.90;;;;;;5074888;28;19934;-88
2023/05/28 04:13:42;;;;;;;;;;;10.40;99.90;;;;;;5058158;28;20329;-87
2023/05/28 04:16:09;;;;;;;;;;;10.50;99.90;;;;;;5074562;28;20390;-88
2023/05/28 04:18:35;;;;;;;;;;;10.60;99.90;;;;;;5074080;28;20248;-87
2023/05/28 04:21:01;;;;;;;;;;;10.70;99.90;;;;;;5073847;28;19923;-88
2023/05/28 04:23:26;;;;;;;;;;;10.80;99.90;;;;;;5073944;28;19912;-87
2023/05/28 04:25:53;;;;;;;;;;;10.90;99.90;;;;;;5073633;28;20414;-87
2023/05/28 04:28:19;;;;;;;;;;;10.90;99.90;;;;;;5074539;28;19940;-88
2023/05/28 04:30:45;;;;;;;;;;;11.00;99.90;;;;;;5073758;28;20018;-87
2023/05/28 04:33:11;;;;;;;;;;;11.00;99.90;;;;;;5075286;28;20382;-88
2023/05/28 04:35:37;;;;;;;;;;;11.10;99.90;;;;;;5074209;28;19909;-87
2023/05/28 04:38:04;;;;;;;;;;;11.20;99.90;;;;;;5073310;28;20371;-88
2023/05/28 04:40:29;;;;;;;;;;;11.20;99.90;;;;;;5073850;28;19909;-88
2023/05/28 04:42:55;;;;;;;;;;;11.30;99.90;;;;;;5074178;28;19912;-88
2023/05/28 04:45:22;;;;;;;;;;;11.40;99.90;;;;;;5074141;28;19908;-88
2023/05/28 04:47:49;;;;;;;;;;;11.40;99.90;;;;;;5074506;28;19958;-88
2023/05/28 04:50:15;;;;;;;;;;;11.50;99.90;;;;;;5074192;28;19908;-87
2023/05/28 04:52:41;;;;;;;;;;;11.50;99.90;;;;;;5074036;28;20253;-88
2023/05/28 04:55:06;;;;;;;;;;;11.60;99.90;;;;;;5074327;28;19915;-88
2023/05/28 04:57:32;;;;;;;;;;;11.60;99.90;;;;;;5074552;28;20009;-88
2023/05/28 05:00:00;;;;;;;;;;;11.80;99.90;;;;;;5073854;28;19983;-88
2023/05/28 05:02:25;;;;;;;;;;;11.80;99.90;;;;;;5073813;28;20393;-88
2023/05/28 05:04:51;;;;;;;;;;;11.90;99.90;;;;;;5074476;28;19905;-86
2023/05/28 05:07:22;;;;;;;;;;;12.00;99.90;;;;;;5074142;28;19912;-88
2023/05/28 05:09:48;;;;;;;;;;;12.10;99.90;;;;;;5073706;28;19908;-88
2023/05/28 05:12:14;;;;;;;;;;;12.20;99.90;;;;;;5073679;28;19915;-88
2023/05/28 05:14:40;;;;;;;;;;;12.30;99.90;;;;;;5074005;28;20006;-89
2023/05/28 05:17:08;;;;;;;;;;;12.40;99.90;;;;;;5073566;28;19947;-88
2023/05/28 05:19:35;;;;;;;;;;;12.50;99.90;;;;;;5073615;28;19947;-87
2023/05/28 05:22:01;;;;;;;;;;;12.60;99.90;;;;;;5086819;28;19958;-87
2023/05/28 05:24:27;;;;;;;;;;;12.70;99.90;;;;;;5073919;28;19915;-87
2023/05/28 05:26:53;;;;;;;;;;;12.90;99.90;;;;;;5073311;28;19912;-89
2023/05/28 05:29:18;;;;;;;;;;;13.00;99.90;;;;;;5073202;28;19916;-88
2023/05/28 05:31:44;;;;;;;;;;;13.00;99.90;;;;;;5073804;28;19912;-89
2023/05/28 05:34:11;;;;;;;;;;;13.10;99.90;;;;;;5073698;28;19912;-87
2023/05/28 05:36:40;;;;;;;;;;;13.20;99.90;;;;;;5084074;28;19916;-88
2023/05/28 05:39:21;;;;;;;;;;;13.30;99.90;;;;;;5073832;28;19909;-88
2023/05/28 05:42:06;;;;;;;;;;;13.50;99.90;;;;;;5079438;28;19908;-88
2023/05/28 05:44:38;;;;;;;;;;;13.60;99.90;;;;;;5062349;28;20021;-87
2023/05/28 05:47:04;;;;;;;;;;;13.70;99.90;;;;;;5066420;28;19908;-88
2023/05/28 05:49:30;;;;;;;;;;;13.80;99.90;;;;;;5072361;28;19916;-88
2023/05/28 05:51:56;;;;;;;;;;;13.90;99.90;;;;;;5065898;28;20018;-87
2023/05/28 05:54:21;;;;;;;;;;;13.90;99.90;;;;;;5079345;28;19988;-87
2023/05/28 05:56:48;;;;;;;;;;;14.10;99.90;;;;;;5074558;28;20326;-88
2023/05/28 05:59:14;;;;;;;;;;;14.20;99.90;;;;;;5073481;28;19908;-87
2023/05/28 06:01:39;;;;;;;;;;;14.30;99.90;;;;;;5076586;28;20260;-88
2023/05/28 06:04:06;;;;;;;;;;;14.40;99.90;;;;;;5071252;28;19920;-87
2023/05/28 06:06:54;;;;;;;;;;;14.50;99.90;;;;;;5071780;28;19908;-88
2023/05/28 06:09:43;;;;;;;;;;;14.60;99.90;;;;;;5072511;28;19912;-88
2023/05/28 06:12:15;;;;;;;;;;;14.70;99.90;;;;;;5070040;28;20359;-88
2023/05/28 06:14:41;;;;;;;;;;;14.90;99.90;;;;;;5078342;28;19915;-88
2023/05/28 06:17:09;;;;;;;;;;;15.00;99.90;;;;;;5082614;28;19909;-88
2023/05/28 06:19:35;;;;;;;;;;;15.10;99.90;;;;;;5067691;28;19913;-88
2023/05/28 06:22:03;;;;;;;;;;;15.10;99.90;;;;;;5071167;28;19908;-88
2023/05/28 06:24:29;;;;;;;;;;;15.20;99.90;;;;;;5074069;28;19909;-89
2023/05/28 06:26:55;;;;;;;;;;;15.30;99.90;;;;;;5071314;28;20315;-88
2023/05/28 06:29:21;;;;;;;;;;;15.40;99.90;;;;;;5075778;28;19912;-88
2023/05/28 06:31:46;;;;;;;;;;;15.40;99.90;;;;;;5071970;28;19995;-88
2023/05/28 06:34:13;;;;;;;;;;;15.60;99.90;;;;;;5069679;28;19915;-89
2023/05/28 06:36:39;;;;;;;;;;;15.60;99.90;;;;;;5085653;28;19908;-88
2023/05/28 06:39:05;;;;;;;;;;;15.70;99.90;;;;;;5081742;28;19995;-89
2023/05/28 06:41:32;;;;;;;;;;;15.80;99.90;;;;;;5078841;28;19908;-87
2023/05/28 06:43:57;;;;;;;;;;;15.90;99.90;;;;;;5059436;28;19918;-88
2023/05/28 06:46:43;;;;;;;;;;;16.00;99.90;;;;;;5069110;28;19908;-88
2023/05/28 06:49:09;;;;;;;;;;;16.10;99.90;;;;;;5076901;28;19924;-88
2023/05/28 06:51:36;;;;;;;;;;;16.20;99.90;;;;;;5076729;28;19970;-88
2023/05/28 06:54:02;;;;;;;;;;;16.20;99.90;;;;;;5076394;28;19908;-88
2023/05/28 06:56:30;;;;;;;;;;;16.30;99.90;;;;;;5067586;28;19958;-89
2023/05/28 06:59:15;;;;;;;;;;;16.40;99.90;;;;;;5075747;28;19915;-89
2023/05/28 07:01:59;;;;;;;;;;;16.50;99.90;;;;;;5076700;28;19958;-88
2023/05/28 07:04:54;;;;;;;;;;;16.60;99.90;;;;;;5055554;28;19909;-88
2023/05/28 07:07:27;;;;;;;;;;;16.50;99.90;;;;;;5060230;28;19912;-89
2023/05/28 07:09:53;;;;;;;;;;;16.60;99.90;;;;;;5075710;28;19908;-88
2023/05/28 07:12:18;;;;;;;;;;;16.70;99.90;;;;;;5075692;28;19999;-90
2023/05/28 07:14:49;;;;;;;;;;;16.80;99.90;;;;;;5075761;28;19931;-88
2023/05/28 07:17:14;;;;;;;;;;;16.90;99.90;;;;;;5075633;28;19909;-87
2023/05/28 07:19:42;;;;;;;;;;;17.00;99.90;;;;;;5075287;28;20265;-88
2023/05/28 07:22:08;;;;;;;;;;;17.00;99.90;;;;;;5075552;28;19908;-88
2023/05/28 07:24:34;;;;;;;;;;;17.10;99.90;;;;;;5075629;28;19909;-89
2023/05/28 07:27:00;;;;;;;;;;;17.20;99.90;;;;;;5075056;28;19935;-88
2023/05/28 07:29:26;;;;;;;;;;;17.50;99.90;;;;;;5075228;28;19915;-88
2023/05/28 07:31:52;;;;;;;;;;;17.90;99.90;;;;;;5075165;28;20347;-88
2023/05/28 07:34:21;;;;;;;;;;;17.90;99.90;;;;;;5074272;28;19908;-89
2023/05/28 07:36:47;;;;;;;;;;;17.90;99.90;;;;;;5074944;28;19958;-89
2023/05/28 07:39:13;;;;;;;;;;;17.80;99.90;;;;;;5075306;28;20371;-89
2023/05/28 07:41:39;;;;;;;;;;;17.80;99.90;;;;;;5075134;28;19916;-88
2023/05/28 07:44:15;;;;;;;;;;;17.80;99.90;;;;;;5071974;28;20379;-89
2023/05/28 07:46:41;;;;;;;;;;;17.80;99.90;;;;;;5075241;28;19998;-89
2023/05/28 07:49:16;;;;;;;;;;;17.90;99.90;;;;;;5060017;28;20007;-88
2023/05/28 07:51:44;;;;;;;;;;;18.50;99.90;;;;;;5075293;28;19913;-88
2023/05/28 07:54:15;;;;;;;;;;;20.00;99.90;;;;;;5074886;28;19908;-88
2023/05/28 07:56:41;;;;;;;;;;;21.80;96.30;;;;;;5063370;28;19908;-88
2023/05/28 07:59:11;;;;;;;;;;;23.30;91.60;;;;;;5074947;28;20017;-89
2023/05/28 08:01:37;;;;;;;;;;;24.20;90.20;;;;;;5061465;28;20634;-89
2023/05/28 08:04:04;;;;;;;;;;;24.90;84.70;;;;;;5075192;28;19912;-89
2023/05/28 08:06:34;;;;;;;;;;;26.00;78.90;;;;;;5073328;28;19911;-89
2023/05/28 08:09:02;;;;;;;;;;;26.60;75.60;;;;;;5074531;28;19919;-89
2023/05/28 08:11:27;;;;;;;9.20;4.97;;;26.50;70.70;;;;;;5074738;28;19916;-88
2023/05/28 08:13:53;;;;;;;11.57;5.72;;;27.10;70.10;;;;;;5057708;28;20475;-90
2023/05/28 08:16:19;;;;;;;11.20;4.65;;;27.70;65.40;;;;;;5074202;28;20029;-89
2023/05/28 08:19:03;;;;;;;13.63;5.10;;;28.10;62.60;;;;;;5074569;28;20052;-89
2023/05/28 08:21:30;;;;;;;12.73;6.03;;;28.30;60.20;;;;;;5057537;28;20025;-89
2023/05/28 08:23:56;;;;;;;12.60;5.13;;;29.00;59.50;;;;;;5057212;28;20025;-88
2023/05/28 08:26:22;;;;;;;13.85;4.90;;;29.00;59.30;;;;;;5057369;28;20034;-86
2023/05/28 08:28:48;;;;;;;17.27;5.45;;;29.00;57.80;;;;;;5058498;28;20029;-87
2023/05/28 08:31:14;;;;;;;9.55;4.35;;;29.00;57.80;;;;;;5058245;28;20070;-87
2023/05/28 08:33:54;;;;;;;17.25;4.80;;;29.20;56.70;;;;;;5059268;28;20036;-88
2023/05/28 08:36:20;;;;;;;13.23;5.30;;;29.40;55.70;;;;;;5065399;28;20092;-87
2023/05/28 08:38:48;;;;;;;13.15;4.75;;;29.90;54.90;;;;;;5074446;28;20561;-88
2023/05/28 08:41:16;;;;;;;10.88;5.70;;;29.70;52.50;;;;;;5057666;28;20025;-88
2023/05/28 08:43:44;;;;;;;11.18;4.40;;;29.70;55.90;;;;;;5057063;28;20040;-88
2023/05/28 08:46:11;;;;;;;7.03;4.80;;;29.90;53.50;;;;;;5056843;28;20029;-88
2023/05/28 08:48:46;;;;;;;14.02;5.72;;;29.50;53.10;;;;;;5057896;28;20123;-87
2023/05/28 08:51:13;;;;;;;13.90;5.13;;;29.60;52.30;;;;;;5056800;28;20432;-88
2023/05/28 08:53:47;;;;;;;24.20;5.90;;;29.50;51.30;;;;;;5074455;28;20028;-88
2023/05/28 08:56:17;;;;;;;17.52;5.72;;;29.50;52.60;;;;;;5060177;28;20047;-87
2023/05/28 08:58:44;;;;;;;17.55;6.10;;;29.20;53.90;;;;;;5058614;28;20056;-89
2023/05/28 09:01:10;;;;;;;14.60;4.55;;;29.50;55.40;;;;;;5058197;28;20502;-87
2023/05/28 09:04:00;;;;;;;16.00;5.15;;;29.40;55.90;;;;;;5062474;28;20060;-88
2023/05/28 09:06:42;;;;;;;15.15;5.00;;;29.80;53.20;;;;;;5060469;28;20031;-88
2023/05/28 09:09:15;;;;;;;10.50;4.65;;;29.80;51.60;;;;;;5058310;28;20499;-88
2023/05/28 09:11:47;;;;;;;18.17;5.10;;;29.70;52.20;;;;;;5058456;28;20024;-89
2023/05/28 09:14:14;;;;;;;10.68;4.57;;;29.70;51.70;;;;;;5057943;28;20036;-88
2023/05/28 09:24:16;;;;;;;12.80;4.63;;;28.60;53.60;;;;;;5077417;28;20059;-89
2023/05/28 09:27:00;;;;;;;9.93;4.80;;;28.80;54.60;;;;;;5080280;28;20047;-88
2023/05/28 09:29:31;;;;;;;;;;;29.00;51.60;;;;;;5117537;27;20031;-89
2023/05/28 09:31:59;;;;;;;20.23;5.40;;;28.80;52.10;;;;;;5074370;28;20344;-88
2023/05/28 09:34:34;;;;;;;11.68;4.95;;;29.10;52.30;;;;;;5062609;28;20017;-89
2023/05/28 09:37:04;;;;;;;11.23;4.97;;;28.80;51.80;;;;;;5065228;28;20028;-90
2023/05/28 09:39:31;;;;;;;12.02;5.13;;;29.10;53.30;;;;;;5060750;28;20460;-89
2023/05/28 09:42:03;;;;;;;9.82;4.82;;;28.70;51.30;;;;;;5066157;28;20029;-88
2023/05/28 09:44:33;;;;;;;12.93;5.20;;;28.80;51.00;;;;;;5075788;28;20112;-88
2023/05/28 09:46:59;;;;;;;9.27;4.90;;;29.50;50.80;;;;;;5070596;28;20028;-89
2023/05/28 09:49:28;;;;;;;16.27;5.30;;;29.80;52.10;;;;;;5058715;28;20048;-89
2023/05/28 09:51:59;;;;;;;9.27;4.72;;;30.00;49.30;;;;;;5067321;28;20044;-87
2023/05/28 09:54:29;;;;;;;11.65;5.38;;;29.70;49.70;;;;;;5087794;28;20024;-88
2023/05/28 09:56:58;;;;;;;9.63;4.82;;;29.40;52.70;;;;;;5068287;28;20034;-88
2023/05/28 09:59:26;;;;;;;10.95;5.18;;;29.40;52.10;;;;;;5060905;28;20076;-89
2023/05/28 10:02:22;;;;;;;15.45;5.18;;;29.00;50.60;;;;;;5054449;28;20115;-88
2023/05/28 10:04:51;;;;;;;11.25;4.60;;;28.20;53.40;;;;;;5055299;28;20020;-88
2023/05/28 10:07:18;;;;;;;11.20;5.38;;;27.30;54.40;;;;;;5059880;28;20025;-87
2023/05/28 10:09:44;;;;;;;19.30;5.10;;;26.70;54.80;;;;;;5093715;28;20025;-88
2023/05/28 10:12:14;;;;;;;9.68;4.55;;;26.60;55.00;;;;;;5099826;28;20016;-88
2023/05/28 10:14:40;;;;;;;13.48;5.18;;;25.80;54.40;;;;;;5103174;28;20034;-89
2023/05/28 10:17:10;;;;;;;16.65;5.25;;;26.00;59.00;;;;;;5075904;28;20032;-88
2023/05/28 10:19:38;;;;;;;9.63;4.80;;;25.90;54.80;;;;;;5103346;28;20115;-88
2023/05/28 10:22:04;;;;;;;11.23;5.20;;;25.20;55.60;;;;;;5088187;28;20024;-87
2023/05/28 10:24:31;;;;;;;11.43;5.80;;;25.00;55.50;;;;;;5056551;28;20025;-89
2023/05/28 10:26:57;;;;;;;9.35;4.78;;;25.20;55.80;;;;;;5070981;28;20032;-89
2023/05/28 10:29:23;;;;;;;11.63;5.60;;;25.40;57.60;;;;;;5072488;28;20471;-88
2023/05/28 10:32:00;;;;;;;14.38;5.13;;;25.30;56.70;;;;;;5055260;28;20024;-87
2023/05/28 10:34:31;;;;;;;9.93;4.55;;;25.20;56.50;;;;;;5079705;28;20039;-87
2023/05/28 10:37:02;;;;;;;17.00;5.13;;;25.00;58.30;;;;;;5062769;28;20028;-90
2023/05/28 10:39:45;;;;;;;10.50;4.88;;;25.60;56.40;;;;;;5066914;28;20495;-89
2023/05/28 10:42:20;;;;;;;12.68;5.43;;;25.60;59.10;;;;;;5088519;28;20086;-88
2023/05/28 10:45:10;;;;;;;11.23;5.38;;;25.80;59.10;;;;;;5060219;28;20124;-89
2023/05/28 10:47:40;;;;;;;15.27;5.82;;;25.90;56.30;;;;;;5061506;28;20029;-87
2023/05/28 10:50:09;;;;;;;11.90;5.35;;;25.30;56.50;;;;;;5088490;28;20032;-87
2023/05/28 10:52:38;;;;;;;10.45;4.53;;;25.20;58.70;;;;;;5095177;28;20031;-88
2023/05/28 10:55:10;;;;;;;9.50;5.55;;;25.30;58.60;;;;;;5075443;28;20051;-88
2023/05/28 10:57:44;;;;;;;15.02;5.45;;;25.50;58.30;;;;;;5060899;28;20032;-88
2023/05/28 11:00:14;;;;;;;16.88;5.60;;;25.60;56.40;;;;;;5060583;28;20029;-88
2023/05/28 11:02:44;;;;;;;11.63;5.07;;;25.20;58.90;;;;;;5061277;28;20021;-88
2023/05/28 11:05:10;;;;;;;14.25;5.22;;;25.30;58.60;;;;;;5086220;28;20419;-89
2023/05/28 11:07:39;;;;;;;13.93;4.85;;;25.60;55.50;;;;;;5059759;28;20083;-88
2023/05/28 11:10:10;;;;;;;11.57;5.40;;;25.90;56.90;;;;;;5059861;28;20218;-88
2023/05/28 11:12:38;;;;;;;11.60;5.70;;;25.60;57.20;;;;;;5060706;28;20031;-88
2023/05/28 11:15:09;;;;;;;9.50;5.20;;;25.60;57.60;;;;;;5060499;28;20067;-88
2023/05/28 11:17:35;;;;;;;;;;;25.70;57.30;;;;;;5091448;28;20028;-89
2023/05/28 11:20:01;;;;;;;12.05;5.70;;;26.10;56.20;;;;;;5076697;28;19998;-88
2023/05/28 11:22:35;;;;;;;13.48;5.35;;;25.90;56.90;;;;;;5059762;28;20082;-88
2023/05/28 11:25:06;;;;;;;14.40;4.82;;;26.00;55.70;;;;;;5094154;28;20029;-88
2023/05/28 11:27:35;;;;;;;7.72;4.80;;;26.40;58.00;;;;;;5059837;28;20035;-88
2023/05/28 11:30:11;;;;;;;10.95;5.78;;;26.70;58.00;;;;;;5060226;28;20552;-89
2023/05/28 11:32:37;;;;;;;10.02;5.47;;;26.50;58.70;;;;;;5059518;28;20100;-88
2023/05/28 11:35:04;;;;;;;13.38;5.18;;;26.30;57.90;;;;;;5070316;28;20060;-88
2023/05/28 11:37:32;;;;;;;13.63;5.57;;;26.20;57.70;;;;;;5046537;28;20086;-88
2023/05/28 11:39:59;;;;;;;11.07;4.90;;;26.50;56.10;;;;;;5065420;28;20032;-89
2023/05/28 11:42:28;;;;;;;12.30;5.30;;;26.80;56.90;;;;;;5078933;28;20060;-89
2023/05/28 11:44:54;;;;;;;13.35;5.47;;;26.70;56.70;;;;;;5089578;28;20027;-89
2023/05/28 11:47:20;;;;;;;20.27;5.65;;;26.20;59.30;;;;;;5068231;28;20023;-89
2023/05/28 11:49:47;;;;;;;9.25;5.20;;;25.40;57.00;;;;;;5075384;28;20102;-89
2023/05/28 11:52:15;;;;;;;10.93;5.32;;;25.70;58.90;;;;;;5065873;28;20024;-89
2023/05/28 11:54:43;;;;;;;11.65;5.47;;;25.70;60.10;;;;;;5064857;28;20024;-89
2023/05/28 11:57:09;;;;;;;15.05;5.88;;;26.00;58.40;;;;;;5059568;28;20032;-88
2023/05/28 11:59:36;;;;;;;12.45;5.78;;;25.90;58.70;;;;;;5061538;28;20031;-90
2023/05/28 12:02:16;;;;;;;13.95;5.78;;;25.80;59.50;;;;;;5052256;28;20028;-88
2023/05/28 12:05:02;;;;;;;10.20;5.50;;;25.50;58.60;;;;;;5058215;28;20039;-90
2023/05/28 12:07:32;;;;;;;10.20;5.40;;;25.30;59.60;;;;;;5062030;28;20081;-88
2023/05/28 12:10:08;;;;;;;10.32;5.47;;;25.20;59.10;;;;;;5059059;28;20024;-89
2023/05/28 12:12:39;;;;;;;14.38;6.20;;;25.50;62.20;;;;;;5071006;28;20042;-91
2023/05/28 12:15:06;;;;;;;13.10;5.32;;;25.70;57.40;;;;;;5070116;28;20073;-89
2023/05/28 12:17:41;;;;;;;11.95;5.47;;;25.50;58.10;;;;;;5069452;28;20025;-89
2023/05/28 12:20:26;;;;;;;11.55;5.03;;;25.30;58.20;;;;;;5080959;28;20020;-89
2023/05/28 12:23:06;;;;;;;13.05;6.20;;;25.80;57.60;;;;;;5112982;27;20062;-89
2023/05/28 12:25:49;;;;;;;11.70;5.13;;;26.30;56.80;;;;;;5067696;28;20029;-89
2023/05/28 12:28:21;;;;;;;13.57;5.43;;;27.00;56.00;;;;;;5064537;28;20041;-89
2023/05/28 12:30:50;;;;;;;11.02;5.35;;;27.10;57.20;;;;;;5077923;28;20025;-89
2023/05/28 12:33:16;;;;;;;10.15;5.38;;;27.20;55.20;;;;;;5049504;28;20021;-90
2023/05/28 12:35:43;;;;;;;12.27;5.78;;;27.70;54.30;;;;;;5073105;28;20043;-89
2023/05/28 12:38:09;;;;;;;15.40;5.85;;;28.10;54.90;;;;;;5059038;28;20028;-89
2023/05/28 12:40:35;;;;;;;13.57;6.13;;;28.70;52.60;;;;;;5063747;28;20115;-88
2023/05/28 12:43:01;;;;;;;24.25;5.53;;;28.70;53.30;;;;;;5072385;28;20089;-89
2023/05/28 12:45:39;;;;;;;13.93;5.65;;;28.90;53.20;;;;;;5079722;28;20102;-89
2023/05/28 12:48:05;;;;;;;7.85;4.93;;;28.20;52.90;;;;;;5059087;28;20031;-89
2023/05/28 12:50:30;;;;;;;10.57;5.40;;;28.00;54.80;;;;;;5060266;28;20025;-89
2023/05/28 12:52:56;;;;;;;12.25;5.45;;;28.50;55.10;;;;;;5064439;28;20040;-89
2023/05/28 12:55:22;;;;;;;17.58;5.57;;;28.60;53.00;;;;;;5052301;28;20036;-88
2023/05/28 12:57:47;;;;;;;10.85;5.70;;;28.80;53.60;;;;;;5078006;28;20094;-89
2023/05/28 13:00:14;;;;;;;14.32;5.53;;;27.90;54.80;;;;;;5060619;28;20028;-89
2023/05/28 13:02:40;;;;;;;14.30;6.07;;;27.40;56.20;;;;;;5067189;28;20123;-89
2023/05/28 13:05:07;;;;;;;9.95;5.65;;;27.80;52.70;;;;;;5074862;28;20416;-89
2023/05/28 13:07:33;;;;;;;11.25;5.47;;;28.80;52.10;;;;;;5066865;28;20020;-90
2023/05/28 13:09:58;;;;;;;14.00;5.95;;;29.30;53.70;;;;;;5055304;28;20471;-90
2023/05/28 13:12:24;;;;;;;12.63;6.65;;;29.50;51.00;;;;;;5066230;28;20090;-91
2023/05/28 13:15:41;;;;;;;13.60;6.13;;;29.30;49.70;;;;;;5071785;28;20033;-89
2023/05/28 13:18:07;;;;;;;15.50;6.95;;;29.50;50.40;;;;;;5066162;28;20029;-91
2023/05/28 13:24:20;;;;;;;16.10;6.57;;;29.00;47.70;;;;;;5074729;28;20031;-89
2023/05/28 13:26:46;;;;;;;12.53;5.80;;;29.20;51.10;;;;;;5057902;28;20115;-89
2023/05/28 13:32:59;;;;;;;10.13;5.70;;;30.50;49.50;;;;;;5074668;28;20089;-88
2023/05/28 13:35:24;;;;;;;15.73;6.50;;;30.10;48.90;;;;;;5056455;28;20100;-89
2023/05/28 13:37:51;;;;;;;10.63;6.05;;;29.80;48.20;;;;;;5056676;28;20515;-90
2023/05/28 13:40:20;;;;;;;10.38;6.00;;;29.50;50.00;;;;;;5058114;28;20380;-90
2023/05/28 13:42:48;;;;;;;10.02;5.50;;;29.70;51.50;;;;;;5107940;28;20442;-89
2023/05/28 13:45:15;;;;;;;10.38;5.70;;;29.70;49.80;;;;;;5074557;28;20036;-89
2023/05/28 13:47:41;;;;;;;10.80;5.82;;;29.90;50.70;;;;;;5057163;28;20021;-90
2023/05/28 13:50:07;;;;;;;10.00;5.15;;;30.00;50.50;;;;;;5057587;28;20082;-89
2023/05/28 13:52:33;;;;;;;14.13;6.38;;;29.80;49.80;;;;;;5049786;28;20032;-89
2023/05/28 13:55:00;;;;;;;17.02;6.50;;;30.10;50.00;;;;;;5071502;28;20033;-89
2023/05/28 13:57:25;;;;;;;8.95;5.15;;;29.80;48.30;;;;;;5056568;28;20068;-90
2023/05/28 13:59:51;;;;;;;10.70;5.78;;;29.70;47.90;;;;;;5057328;28;20036;-89